Coleman Falls, Virginia
Current Conditions -  °F | °C
As of 2:54 AM on Thursday 27 Nov 2014 (Local Time) from KLYH Reporting Station
Overcast Overcast  
Wind Chill: 35°   Ceiling: 7500
Heat Index: 35°   Visibility: NA
Dew Point: 35°   Wind: 0mph
Humidity: 100%   Direction: NA
Pressure: 30.02"   Gusts: NA
Location:  37.5°N, 79.3°W
Report Text: KLYH 270754Z AUTO 00000KT OVC075 02/02 A3002 RMK AO2 SLP170 T00170017 $
Loading
Personal Weather Stations






























Interactive Weather Map New forecast layout! Learn more

10-Day Weather Forecast

Advertisements
Track Severe Weather on mobile